createdAt,value
2019-04-01T00:01:36.679Z,43.58
2019-04-01T00:04:05.257Z,44.14
2019-04-01T00:06:33.016Z,44.81
2019-04-01T00:09:00.826Z,43.82
2019-04-01T00:11:28.603Z,44.14
2019-04-01T00:13:56.466Z,42.56
2019-04-01T00:16:24.214Z,42.01
2019-04-01T00:19:02.370Z,41.27
2019-04-01T00:21:21.543Z,40.97
2019-04-01T00:23:49.430Z,41.36
2019-04-01T00:26:17.674Z,40.98
2019-04-01T00:28:45.511Z,40.27
2019-04-01T00:31:13.412Z,39.91
2019-04-01T00:33:41.165Z,40.42
2019-04-01T00:36:09.026Z,40.67
2019-04-01T00:38:36.773Z,40.47
2019-04-01T00:41:04.520Z,40.15
2019-04-01T00:44:00.407Z,40.20
2019-04-01T00:46:28.108Z,40.55
2019-04-01T00:48:55.905Z,40.37
2019-04-01T00:51:23.710Z,39.96
2019-04-01T00:53:51.626Z,40.43
2019-04-01T00:56:19.441Z,41.10
2019-04-01T00:58:47.283Z,40.81
2019-04-01T01:01:15.049Z,39.65
2019-04-01T01:03:42.801Z,40.17
2019-04-01T01:06:10.657Z,40.06
2019-04-01T01:08:38.588Z,40.87
2019-04-01T01:11:06.459Z,40.62
2019-04-01T01:13:34.287Z,40.79
2019-04-01T01:16:01.993Z,41.56
2019-04-01T01:18:29.810Z,41.27
2019-04-01T01:20:57.597Z,41.13
2019-04-01T01:23:25.406Z,41.24
2019-04-01T01:25:53.097Z,40.50
2019-04-01T01:28:20.862Z,41.36
2019-04-01T01:30:48.665Z,41.25
2019-04-01T01:33:16.437Z,40.40
2019-04-01T01:35:44.203Z,40.59
2019-04-01T01:38:11.938Z,41.45
2019-04-01T01:40:39.724Z,41.16
2019-04-01T01:43:07.488Z,41.37
2019-04-01T01:45:35.271Z,41.35
2019-04-01T01:48:03.113Z,40.59
2019-04-01T01:50:30.897Z,41.27
2019-04-01T01:52:58.645Z,40.64
2019-04-01T01:55:26.362Z,41.39
2019-04-01T01:57:54.125Z,41.30
2019-04-01T02:00:23.321Z,41.52
2019-04-01T02:02:51.059Z,40.96
2019-04-01T02:05:18.801Z,41.42
2019-04-01T02:07:46.582Z,41.83
2019-04-01T02:10:14.450Z,41.44
2019-04-01T02:12:42.216Z,41.10
2019-04-01T02:15:10.089Z,42.05
2019-04-01T02:17:37.831Z,41.93
2019-04-01T02:20:05.557Z,42.02
2019-04-01T02:22:33.386Z,42.48
2019-04-01T02:25:01.107Z,43.57
2019-04-01T02:27:28.912Z,42.89
2019-04-01T02:29:56.792Z,44.45
2019-04-01T02:32:24.556Z,45.38
2019-04-01T02:34:52.337Z,44.00
2019-04-01T02:37:20.084Z,43.95
2019-04-01T02:39:47.995Z,44.05
2019-04-01T02:42:15.701Z,44.52
2019-04-01T02:44:43.717Z,44.36
2019-04-01T02:47:11.555Z,44.43
2019-04-01T02:49:39.319Z,44.43
2019-04-01T02:52:07.006Z,44.53
2019-04-01T02:54:34.737Z,43.94
2019-04-01T02:57:02.540Z,43.01
2019-04-01T02:59:30.218Z,43.01
2019-04-01T03:01:57.975Z,45.94
2019-04-01T03:04:25.858Z,46.26
2019-04-01T03:06:53.761Z,46.26
2019-04-01T03:09:21.500Z,45.04
2019-04-01T03:11:49.337Z,45.04
2019-04-01T03:14:17.217Z,47.36
2019-04-01T03:16:45.005Z,47.35
2019-04-01T03:19:12.968Z,47.22
2019-04-01T03:21:40.863Z,47.22
2019-04-01T03:24:08.704Z,46.04
2019-04-01T03:26:36.417Z,45.49
2019-04-01T03:29:04.152Z,45.49
2019-04-01T03:31:32.522Z,44.47
2019-04-01T03:34:00.317Z,44.47
2019-04-01T03:36:27.763Z,47.09
2019-04-01T03:38:55.306Z,46.33
2019-04-01T03:41:23.032Z,46.63
2019-04-01T03:43:50.798Z,46.03
2019-04-01T03:46:18.755Z,45.57
2019-04-01T03:48:46.495Z,45.57
2019-04-01T03:51:14.210Z,46.87
2019-04-01T03:53:41.927Z,46.39
2019-04-01T03:56:09.739Z,45.69
2019-04-01T03:58:37.906Z,47.37
2019-04-01T04:01:05.309Z,47.37
2019-04-01T04:03:32.821Z,51.57
2019-04-01T04:06:00.918Z,50.00
2019-04-01T04:08:28.670Z,51.07
2019-04-01T04:10:56.500Z,51.07
2019-04-01T04:13:24.206Z,51.35
2019-04-01T04:15:51.942Z,49.06
2019-04-01T04:18:19.982Z,46.55
2019-04-01T04:20:47.719Z,46.11
2019-04-01T04:23:15.497Z,46.11
2019-04-01T04:25:43.670Z,45.31
2019-04-01T04:28:11.541Z,45.31
2019-04-01T04:30:39.256Z,44.49
2019-04-01T04:33:06.963Z,44.97
2019-04-01T04:35:34.741Z,44.80
2019-04-01T04:38:02.481Z,44.91
2019-04-01T04:40:30.328Z,44.39
2019-04-01T04:42:58.106Z,44.19
2019-04-01T04:45:25.820Z,44.19
2019-04-01T04:47:53.535Z,44.15
2019-04-01T04:50:21.435Z,45.07
2019-04-01T04:52:49.178Z,43.80
2019-04-01T04:55:16.986Z,44.52
2019-04-01T04:57:45.223Z,44.52
2019-04-01T05:00:12.930Z,44.20
2019-04-01T05:02:40.694Z,44.27
2019-04-01T05:05:08.574Z,44.57
2019-04-01T05:07:36.425Z,44.31
2019-04-01T05:10:04.329Z,46.60
2019-04-01T05:12:32.380Z,46.60
2019-04-01T05:15:00.449Z,45.32
2019-04-01T05:17:28.510Z,45.17
2019-04-01T05:19:56.390Z,46.97
2019-04-01T05:22:24.403Z,47.88
2019-04-01T05:24:51.898Z,47.88
2019-04-01T05:27:19.338Z,47.15
2019-04-01T05:29:47.042Z,46.49
2019-04-01T05:32:14.789Z,46.40
2019-04-01T05:34:42.505Z,45.54
2019-04-01T05:37:10.297Z,45.95
2019-04-01T05:39:38.215Z,45.98
2019-04-01T05:42:06.079Z,44.75
2019-04-01T05:44:34.153Z,44.70
2019-04-01T05:47:02.033Z,44.35
2019-04-01T05:49:29.775Z,44.10
2019-04-01T05:51:57.543Z,42.64
2019-04-01T05:54:25.284Z,42.33
2019-04-01T05:56:53.164Z,42.17
2019-04-01T05:59:20.870Z,42.17
2019-04-01T06:01:48.697Z,41.79
2019-04-01T06:04:16.458Z,41.84
2019-04-01T06:06:44.326Z,41.92
2019-04-01T06:09:12.102Z,41.62
2019-04-01T06:11:39.844Z,43.35
2019-04-01T06:14:07.637Z,43.54
2019-04-01T06:16:35.515Z,42.53
2019-04-01T06:19:06.010Z,42.84
2019-04-01T06:21:32.871Z,42.07
2019-04-01T06:24:00.642Z,41.80
2019-04-01T06:26:28.440Z,40.93
2019-04-01T06:28:56.296Z,41.35
2019-04-01T06:31:24.024Z,41.04
2019-04-01T06:33:51.739Z,40.73
2019-04-01T06:36:19.451Z,40.64
2019-04-01T06:38:47.274Z,40.96
2019-04-01T06:41:15.004Z,39.98
2019-04-01T06:43:42.720Z,39.62
2019-04-01T06:46:10.548Z,39.79
2019-04-01T06:48:38.275Z,39.90
2019-04-01T06:51:06.036Z,39.37
2019-04-01T06:53:33.848Z,39.27
2019-04-01T06:56:01.701Z,39.50
2019-04-01T06:58:29.465Z,39.37
2019-04-01T07:00:57.262Z,39.33
2019-04-01T07:03:25.036Z,39.20
2019-04-01T07:05:52.754Z,38.73
2019-04-01T07:08:20.540Z,39.56
2019-04-01T07:10:48.261Z,38.96
2019-04-01T07:13:16.127Z,38.32
2019-04-01T07:15:43.853Z,37.88
2019-04-01T07:18:11.723Z,37.45
2019-04-01T07:20:39.477Z,38.12
2019-04-01T07:23:07.277Z,38.31
2019-04-01T07:25:35.014Z,37.85
2019-04-01T07:28:02.810Z,37.48
2019-04-01T07:30:30.513Z,36.83
2019-04-01T07:32:58.426Z,36.02
2019-04-01T07:35:26.244Z,36.84
2019-04-01T07:37:54.171Z,38.38
2019-04-01T07:40:22.193Z,37.78
2019-04-01T07:42:49.984Z,35.95
2019-04-01T07:45:17.747Z,35.43
2019-04-01T07:47:45.755Z,34.96
2019-04-01T07:50:13.636Z,35.03
2019-04-01T07:52:41.377Z,34.34
2019-04-01T07:55:09.115Z,33.48
2019-04-01T07:57:36.996Z,33.80
2019-04-01T08:00:04.881Z,33.72
2019-04-01T08:02:32.600Z,34.23
2019-04-01T08:05:00.448Z,33.55
2019-04-01T08:07:28.209Z,32.73
2019-04-01T08:09:56.030Z,32.35
2019-04-01T08:12:23.833Z,32.25
2019-04-01T08:14:51.653Z,31.36
2019-04-01T08:17:19.459Z,31.83
2019-04-01T08:19:47.395Z,30.73
2019-04-01T08:22:15.151Z,30.35
2019-04-01T08:24:42.944Z,29.66
2019-04-01T08:27:10.653Z,29.54
2019-04-01T08:29:38.391Z,29.11
2019-04-01T08:32:06.226Z,28.72
2019-04-01T08:34:34.029Z,28.30
2019-04-01T08:37:01.860Z,27.89
2019-04-01T08:39:29.666Z,27.55
2019-04-01T08:41:57.625Z,27.15
2019-04-01T08:44:25.478Z,27.06
2019-04-01T08:46:53.269Z,26.25
2019-04-01T08:49:21.059Z,26.47
2019-04-01T08:51:48.896Z,25.86
2019-04-01T08:54:16.864Z,26.07
2019-04-01T08:56:44.650Z,25.71
2019-04-01T08:59:12.499Z,25.31
2019-04-01T09:01:40.251Z,26.01
2019-04-01T09:04:07.979Z,25.47
2019-04-01T09:06:35.860Z,24.88
2019-04-01T09:09:05.724Z,24.42
2019-04-01T09:11:33.475Z,24.72
2019-04-01T09:14:01.290Z,24.26
2019-04-01T09:16:29.122Z,24.32
2019-04-01T09:18:56.713Z,23.95
2019-04-01T09:21:24.265Z,23.67
2019-04-01T09:23:52.374Z,23.82
2019-04-01T09:26:20.322Z,23.31
2019-04-01T09:28:47.860Z,23.22
2019-04-01T09:31:15.325Z,23.08
2019-04-01T09:33:42.908Z,23.72
2019-04-01T09:36:10.539Z,23.00
2019-04-01T09:38:38.199Z,22.97
2019-04-01T09:41:05.651Z,22.04
2019-04-01T09:43:33.139Z,22.40
2019-04-01T09:46:00.779Z,22.32
2019-04-01T09:48:28.333Z,22.42
2019-04-01T09:50:56.214Z,22.20
2019-04-01T09:53:23.985Z,21.61
2019-04-01T09:55:51.714Z,21.09
2019-04-01T09:58:19.538Z,21.26
2019-04-01T10:00:53.191Z,19.53
2019-04-01T10:03:20.478Z,18.79
2019-04-01T10:05:48.508Z,18.03
2019-04-01T10:08:16.254Z,18.37
2019-04-01T10:10:44.086Z,18.17
2019-04-01T10:13:12.089Z,17.52
2019-04-01T10:15:39.906Z,16.90
2019-04-01T10:18:07.787Z,17.08
2019-04-01T10:20:35.777Z,17.49
2019-04-01T10:23:03.618Z,17.60
2019-04-01T10:25:31.509Z,17.49
2019-04-01T10:27:59.254Z,17.78
2019-04-01T10:30:27.288Z,17.56
2019-04-01T10:32:55.197Z,17.91
2019-04-01T10:35:23.173Z,17.05
2019-04-01T10:37:51.023Z,17.18
2019-04-01T10:40:18.767Z,17.49
2019-04-01T10:42:46.526Z,16.68
2019-04-01T10:45:14.404Z,16.03
2019-04-01T10:47:42.257Z,16.38
2019-04-01T10:50:09.925Z,15.85
2019-04-01T10:52:37.735Z,15.13
2019-04-01T10:55:05.497Z,15.07
2019-04-01T10:57:33.567Z,15.17
2019-04-01T11:00:01.620Z,14.79
2019-04-01T11:02:29.637Z,14.46
2019-04-01T11:04:57.378Z,14.35
2019-04-01T11:07:25.199Z,14.48
2019-04-01T11:09:52.958Z,14.56
2019-04-01T11:12:20.768Z,14.16
2019-04-01T11:14:48.584Z,13.84
2019-04-01T11:17:16.359Z,13.80
2019-04-01T11:19:44.174Z,13.88
2019-04-01T11:22:11.917Z,14.01
2019-04-01T11:24:39.835Z,14.06
2019-04-01T11:27:07.810Z,14.62
2019-04-01T11:29:35.566Z,13.90
2019-04-01T11:32:03.420Z,13.87
2019-04-01T11:34:31.525Z,13.48
2019-04-01T11:36:59.203Z,13.55
2019-04-01T11:39:26.768Z,13.00
2019-04-01T11:41:54.341Z,13.06
2019-04-01T11:44:22.440Z,13.27
2019-04-01T11:46:50.318Z,13.01
2019-04-01T11:49:18.087Z,14.01
2019-04-01T11:51:45.651Z,14.05
2019-04-01T11:54:13.161Z,14.08
2019-04-01T11:56:41.508Z,13.91
2019-04-01T11:59:09.288Z,13.94
2019-04-01T12:01:37.033Z,13.80
2019-04-01T12:04:05.176Z,13.88
2019-04-01T12:06:32.809Z,13.81
2019-04-01T12:09:03.934Z,13.32
2019-04-01T12:11:31.672Z,13.08
2019-04-01T12:13:59.431Z,13.10
2019-04-01T12:16:26.906Z,13.09
2019-04-01T12:18:54.800Z,12.93
2019-04-01T12:21:22.582Z,12.26
2019-04-01T12:23:50.260Z,12.61
2019-04-01T12:26:18.012Z,12.22
2019-04-01T12:28:45.877Z,12.47
2019-04-01T12:31:13.416Z,11.76
2019-04-01T12:33:40.912Z,11.61
2019-04-01T12:36:11.446Z,11.63
2019-04-01T12:38:37.745Z,11.65
2019-04-01T12:41:05.360Z,12.55
2019-04-01T12:43:32.860Z,12.05
2019-04-01T12:46:00.435Z,12.19
2019-04-01T12:48:27.985Z,12.27
2019-04-01T12:50:55.648Z,11.92
2019-04-01T12:53:23.209Z,12.44
2019-04-01T12:55:50.648Z,12.00
2019-04-01T12:58:18.215Z,11.73
2019-04-01T13:00:45.679Z,11.17
2019-04-01T13:03:13.113Z,11.01
2019-04-01T13:05:40.610Z,11.05
2019-04-01T13:08:08.166Z,11.31
2019-04-01T13:10:35.784Z,11.32
2019-04-01T13:13:03.298Z,11.83
2019-04-01T13:15:30.772Z,11.67
2019-04-01T13:17:58.356Z,11.66
2019-04-01T13:20:37.126Z,11.55
2019-04-01T13:22:55.268Z,11.39
2019-04-01T13:25:22.848Z,11.25
2019-04-01T13:27:50.287Z,11.18
2019-04-01T13:30:17.886Z,11.40
2019-04-01T13:32:45.528Z,11.22
2019-04-01T13:35:13.041Z,11.21
2019-04-01T13:37:40.627Z,10.97
2019-04-01T13:40:08.109Z,10.89
2019-04-01T13:42:35.710Z,10.83
2019-04-01T13:45:03.562Z,10.74
2019-04-01T13:47:31.115Z,10.88
2019-04-01T13:49:58.660Z,11.00
2019-04-01T13:52:26.074Z,11.09
2019-04-01T13:54:53.623Z,12.19
2019-04-01T13:57:21.141Z,11.87
2019-04-01T13:59:49.893Z,12.17
2019-04-01T14:02:17.979Z,12.42
2019-04-01T14:04:45.915Z,12.69
2019-04-01T14:07:13.442Z,12.69
2019-04-01T14:09:41.009Z,13.32
2019-04-01T14:12:08.579Z,12.98
2019-04-01T14:14:36.099Z,13.23
2019-04-01T14:17:03.862Z,12.77
2019-04-01T14:19:31.448Z,13.08
2019-04-01T14:21:59.115Z,13.14
2019-04-01T14:24:26.580Z,12.92
2019-04-01T14:26:56.567Z,12.66
2019-04-01T14:29:23.226Z,12.86
2019-04-01T14:31:50.788Z,13.32
2019-04-01T14:34:23.319Z,13.21
2019-04-01T14:36:47.448Z,12.60
2019-04-01T14:39:15.063Z,12.68
2019-04-01T14:41:42.585Z,12.84
2019-04-01T14:44:10.057Z,12.80
2019-04-01T14:46:37.573Z,13.12
2019-04-01T14:49:05.287Z,12.83
2019-04-01T14:51:32.712Z,13.20
2019-04-01T14:54:00.196Z,13.13
2019-04-01T14:56:28.251Z,13.26
2019-04-01T14:58:56.434Z,13.00
2019-04-01T15:01:23.994Z,13.20
2019-04-01T15:03:51.448Z,13.35
2019-04-01T15:06:18.934Z,13.46
2019-04-01T15:08:48.111Z,13.51
2019-04-01T15:11:15.847Z,13.58
2019-04-01T15:13:43.618Z,13.86
2019-04-01T15:16:11.407Z,14.10
2019-04-01T15:18:38.901Z,13.83
2019-04-01T15:21:06.448Z,14.27
2019-04-01T15:23:33.979Z,14.36
2019-04-01T15:26:02.695Z,14.70
2019-04-01T15:28:31.470Z,14.98
2019-04-01T15:30:59.380Z,15.03
2019-04-01T15:33:26.894Z,15.32
2019-04-01T15:35:54.399Z,15.19
2019-04-01T15:38:22.272Z,15.71
2019-04-01T15:40:50.445Z,15.86
2019-04-01T15:43:18.190Z,16.18
2019-04-01T15:45:46.082Z,16.17
2019-04-01T15:48:13.907Z,16.82
2019-04-01T15:50:41.898Z,16.39
2019-04-01T15:53:09.851Z,16.57
2019-04-01T15:55:37.586Z,16.35
2019-04-01T15:58:05.457Z,16.27
2019-04-01T16:00:33.360Z,16.79
2019-04-01T16:03:01.320Z,16.66
2019-04-01T16:05:30.586Z,17.09
2019-04-01T16:07:58.721Z,17.14
2019-04-01T16:10:29.345Z,17.57
2019-04-01T16:12:55.964Z,17.40
2019-04-01T16:15:23.833Z,17.80
2019-04-01T16:17:53.881Z,17.97
2019-04-01T16:20:21.115Z,18.17
2019-04-01T16:22:49.302Z,18.33
2019-04-01T16:25:17.894Z,18.38
2019-04-01T16:27:45.754Z,18.60
2019-04-01T16:30:13.625Z,18.83
2019-04-01T16:32:41.248Z,18.91
2019-04-01T16:35:09.115Z,19.07
2019-04-01T16:37:36.921Z,18.98
2019-04-01T16:40:06.012Z,19.20
2019-04-01T16:42:34.237Z,19.44
2019-04-01T16:45:01.986Z,19.50
2019-04-01T16:47:29.794Z,19.66
2019-04-01T16:49:58.608Z,19.56
2019-04-01T16:52:26.386Z,20.01
2019-04-01T16:54:54.127Z,20.11
2019-04-01T16:57:21.982Z,20.19
2019-04-01T16:59:49.894Z,20.18
2019-04-01T17:02:18.617Z,20.20
2019-04-01T17:04:48.273Z,20.32
2019-04-01T17:07:19.424Z,20.44
2019-04-01T17:09:45.762Z,20.67
2019-04-01T17:12:13.478Z,20.73
2019-04-01T17:14:41.295Z,20.83
2019-04-01T17:17:09.050Z,20.74
2019-04-01T17:19:36.833Z,20.86
2019-04-01T17:22:04.589Z,21.03
2019-04-01T17:24:32.364Z,20.83
2019-04-01T17:27:00.240Z,21.64
2019-04-01T17:29:31.582Z,21.68
2019-04-01T17:31:57.797Z,21.89
2019-04-01T17:34:25.546Z,21.72
2019-04-01T17:36:53.250Z,22.14
2019-04-01T17:39:21.231Z,22.28
2019-04-01T17:41:49.011Z,22.82
2019-04-01T17:44:16.853Z,22.66
2019-04-01T17:46:44.847Z,22.54
2019-04-01T17:49:12.695Z,22.58
2019-04-01T17:51:40.532Z,22.62
2019-04-01T17:54:08.239Z,22.59
2019-04-01T17:56:35.993Z,22.75
2019-04-01T17:59:03.813Z,22.51
2019-04-01T18:01:31.626Z,22.90
2019-04-01T18:03:59.480Z,22.74
2019-04-01T18:06:27.368Z,23.24
2019-04-01T18:08:55.171Z,23.31
2019-04-01T18:11:22.934Z,23.37
2019-04-01T18:13:51.265Z,23.25
2019-04-01T18:16:18.922Z,23.44
2019-04-01T18:18:46.823Z,24.04
2019-04-01T18:21:14.783Z,23.75
2019-04-01T18:23:42.580Z,24.78
2019-04-01T18:26:10.319Z,24.49
2019-04-01T18:28:38.183Z,24.34
2019-04-01T18:31:05.939Z,24.38
2019-04-01T18:33:33.921Z,23.91
2019-04-01T18:36:01.620Z,23.89
2019-04-01T18:38:29.451Z,23.92
2019-04-01T18:40:57.187Z,24.70
2019-04-01T18:43:25.091Z,25.33
2019-04-01T18:45:53.283Z,25.29
2019-04-01T18:48:21.340Z,25.44
2019-04-01T18:50:49.318Z,25.01
2019-04-01T18:53:17.217Z,24.59
2019-04-01T18:55:45.156Z,24.58
2019-04-01T18:58:13.017Z,24.02
2019-04-01T19:00:40.885Z,24.03
2019-04-01T19:03:10.433Z,24.39
2019-04-01T19:05:39.002Z,23.89
2019-04-01T19:08:07.134Z,24.44
2019-04-01T19:10:35.217Z,24.66
2019-04-01T19:13:06.051Z,24.73
2019-04-01T19:15:33.319Z,24.67
2019-04-01T19:18:01.887Z,24.32
2019-04-01T19:20:30.613Z,24.54
2019-04-01T19:22:58.683Z,24.23
2019-04-01T19:25:26.569Z,24.14
2019-04-01T19:27:54.372Z,24.21
2019-04-01T19:30:22.076Z,24.84
2019-04-01T19:32:49.924Z,24.76
2019-04-01T19:35:17.668Z,25.24
2019-04-01T19:37:45.529Z,25.19
2019-04-01T19:40:13.271Z,24.70
2019-04-01T19:42:41.121Z,24.68
2019-04-01T19:45:11.959Z,25.17
2019-04-01T19:47:39.817Z,25.12
2019-04-01T19:50:07.681Z,25.49
2019-04-01T19:52:35.463Z,25.90
2019-04-01T19:55:03.776Z,25.70
2019-04-01T19:57:31.684Z,25.57
2019-04-01T20:00:01.622Z,26.07
2019-04-01T20:02:29.369Z,26.75
2019-04-01T20:04:57.124Z,26.97
2019-04-01T20:07:25.057Z,26.63
2019-04-01T20:09:52.837Z,26.51
2019-04-01T20:12:20.556Z,26.45
2019-04-01T20:14:48.295Z,27.23
2019-04-01T20:17:16.001Z,26.76
2019-04-01T20:19:44.053Z,26.94
2019-04-01T20:22:11.963Z,26.78
2019-04-01T20:24:39.893Z,26.76
2019-04-01T20:27:07.764Z,26.96
2019-04-01T20:29:35.471Z,27.40
2019-04-01T20:32:16.225Z,27.47
2019-04-01T20:34:32.774Z,27.40
2019-04-01T20:37:00.598Z,26.73
2019-04-01T20:39:28.319Z,26.30
2019-04-01T20:41:56.229Z,26.09
2019-04-01T20:44:25.070Z,26.10
2019-04-01T20:46:52.893Z,25.98
2019-04-01T20:49:20.701Z,26.06
2019-04-01T20:51:48.618Z,26.09
2019-04-01T20:54:16.618Z,27.00
2019-04-01T20:56:44.528Z,26.41
2019-04-01T20:59:12.249Z,26.26
2019-04-01T21:01:39.978Z,26.30
2019-04-01T21:04:07.944Z,26.71
2019-04-01T21:06:35.714Z,26.74
2019-04-01T21:09:06.060Z,26.72
2019-04-01T21:11:33.783Z,27.02
2019-04-01T21:14:03.109Z,27.18
2019-04-01T21:16:31.231Z,27.04
2019-04-01T21:18:58.981Z,26.88
2019-04-01T21:21:26.803Z,26.93
2019-04-01T21:23:54.612Z,26.80
2019-04-01T21:26:22.364Z,26.76
2019-04-01T21:28:50.222Z,26.91
2019-04-01T21:31:17.958Z,27.09
2019-04-01T21:33:45.749Z,26.96
2019-04-01T21:36:16.025Z,26.85
2019-04-01T21:38:43.628Z,27.10
2019-04-01T21:41:11.578Z,27.09
2019-04-01T21:43:39.316Z,27.16
2019-04-01T21:46:08.677Z,28.00
2019-04-01T21:48:37.004Z,27.62
2019-04-01T21:51:05.185Z,27.69
2019-04-01T21:53:33.099Z,28.12
2019-04-01T21:56:00.968Z,28.20
2019-04-01T21:58:28.940Z,28.43
2019-04-01T22:00:58.211Z,28.05
2019-04-01T22:03:26.114Z,28.91
2019-04-01T22:05:53.877Z,28.52
2019-04-01T22:08:21.749Z,28.62
2019-04-01T22:10:49.620Z,28.70
2019-04-01T22:13:17.471Z,28.80
2019-04-01T22:15:45.249Z,28.52
2019-04-01T22:18:13.299Z,28.58
2019-04-01T22:20:42.688Z,28.54
2019-04-01T22:23:10.768Z,28.82
2019-04-01T22:25:38.681Z,29.10
2019-04-01T22:28:06.526Z,29.25
2019-04-01T22:30:34.234Z,29.68
2019-04-01T22:33:02.115Z,29.79
2019-04-01T22:35:38.461Z,30.01
2019-04-01T22:37:59.652Z,30.13
2019-04-01T22:40:27.561Z,30.29
2019-04-01T22:42:56.193Z,30.18
2019-04-01T22:45:24.285Z,30.19
2019-04-01T22:47:52.110Z,31.88
2019-04-01T22:50:19.931Z,31.48
2019-04-01T22:52:47.804Z,32.16
2019-04-01T22:55:15.672Z,31.37
2019-04-01T22:57:43.625Z,31.83
2019-04-01T23:00:11.537Z,31.56
2019-04-01T23:02:39.353Z,31.55
2019-04-01T23:05:08.391Z,31.28
2019-04-01T23:07:36.724Z,31.23
2019-04-01T23:10:04.618Z,31.33
2019-04-01T23:12:32.320Z,31.09
2019-04-01T23:15:00.152Z,30.73
2019-04-01T23:17:28.012Z,31.18
2019-04-01T23:19:55.897Z,30.96
2019-04-01T23:22:23.659Z,30.71
2019-04-01T23:24:51.361Z,30.96
2019-04-01T23:27:19.199Z,30.63
2019-04-01T23:29:46.948Z,31.76
2019-04-01T23:32:16.124Z,31.51
2019-04-01T23:34:44.281Z,31.25
2019-04-01T23:37:12.114Z,31.89
2019-04-01T23:39:39.884Z,31.84
2019-04-01T23:42:07.725Z,32.04
2019-04-01T23:44:35.502Z,31.81
2019-04-01T23:47:03.377Z,31.64
2019-04-01T23:49:31.188Z,31.79
2019-04-01T23:51:58.946Z,31.43
2019-04-01T23:54:26.736Z,31.86
2019-04-01T23:56:56.016Z,31.95
2019-04-01T23:59:24.112Z,32.00
